Time;durP1;ratioP1;P1;durP2;ratioP2;P2;SDS_P1;SDS_P2;PMS_P1;PMS_P2;Temp;Humidity;BMP_temperature;BMP_pressure;BME280_temperature;BME280_humidity;BME280_pressure;Samples;Min_cycle;Max_cycle;Signal;HPM_P1;HPM_P2
2022/06/30 00:00:19;;;;;;;6.15;5.50;;;;;;;;;;5050156;28;20230;-15
2022/06/30 00:02:46;;;;;;;6.20;5.25;;;;;;;;;;5045834;28;20242;-15
2022/06/30 00:05:14;;;;;;;6.65;5.85;;;;;;;;;;5046453;28;20230;-15
2022/06/30 00:07:42;;;;;;;6.93;5.35;;;;;;;;;;5050743;28;20226;-15
2022/06/30 00:10:11;;;;;;;6.32;5.72;;;;;;;;;;5047161;28;21043;-15
2022/06/30 00:12:40;;;;;;;6.85;5.78;;;;;;;;;;5042096;28;20237;-15
2022/06/30 00:15:08;;;;;;;9.32;6.20;;;;;;;;;;5043349;28;20227;-15
2022/06/30 00:17:35;;;;;;;6.20;5.57;;;;;;;;;;5050344;28;20241;-15
2022/06/30 00:20:03;;;;;;;6.50;5.60;;;;;;;;;;5048717;28;20264;-15
2022/06/30 00:22:30;;;;;;;6.90;6.07;;;;;;;;;;5044353;28;20757;-15
2022/06/30 00:24:58;;;;;;;6.93;5.43;;;;;;;;;;5043572;28;20237;-15
2022/06/30 00:27:25;;;;;;;5.95;5.40;;;;;;;;;;5043077;28;20237;-15
2022/06/30 00:29:54;;;;;;;7.38;5.82;;;;;;;;;;5048363;28;20241;-15
2022/06/30 00:32:21;;;;;;;6.40;5.80;;;;;;;;;;5048055;28;20233;-15
2022/06/30 00:34:48;;;;;;;5.78;5.28;;;;;;;;;;5048015;28;20226;-15
2022/06/30 00:37:16;;;;;;;6.72;5.95;;;;;;;;;;5047062;28;20669;-15
2022/06/30 00:39:43;;;;;;;6.35;5.75;;;;;;;;;;5043842;28;20242;-15
2022/06/30 00:42:11;;;;;;;6.05;5.50;;;;;;;;;;5040193;28;20244;-15
2022/06/30 00:44:38;;;;;;;7.30;6.40;;;;;;;;;;5044530;28;20701;-15
2022/06/30 00:47:07;;;;;;;7.93;5.85;;;;;;;;;;5040313;28;20231;-15
2022/06/30 00:49:34;;;;;;;6.05;5.55;;;;;;;;;;5038860;28;20726;-15
2022/06/30 00:52:02;;;;;;;6.90;6.07;;;;;;;;;;5044367;28;20234;-15
2022/06/30 00:54:29;;;;;;;6.93;6.32;;;;;;;;;;5035412;28;20235;-15
2022/06/30 00:56:56;;;;;;;7.82;6.50;;;;;;;;;;5043502;28;20648;-15
2022/06/30 00:59:24;;;;;;;8.50;7.60;;;;;;;;;;5035578;28;20226;-15
2022/06/30 01:01:51;;;;;;;8.73;7.28;;;;;;;;;;5041662;28;20230;-15
2022/06/30 01:04:20;;;;;;;10.88;7.75;;;;;;;;;;5041781;28;20229;-15
2022/06/30 01:06:48;;;;;;;9.65;8.65;;;;;;;;;;5040911;28;20230;-15
2022/06/30 01:12:41;;;;;;;10.25;8.45;;;;;;;;;;5044451;28;20238;-15
2022/06/30 01:14:49;;;;;;;11.98;9.88;;;;;;;;;;5040145;28;20226;-15
2022/06/30 01:17:17;;;;;;;10.82;9.20;;;;;;;;;;5047427;28;20238;-15
2022/06/30 01:19:52;;;;;;;9.40;8.50;;;;;;;;;;5043327;28;20241;-15
2022/06/30 01:22:21;;;;;;;9.63;8.40;;;;;;;;;;5046573;28;20332;-15
2022/06/30 01:24:48;;;;;;;8.90;8.02;;;;;;;;;;5048890;28;20230;-15
2022/06/30 01:27:16;;;;;;;8.70;7.85;;;;;;;;;;5045201;28;20230;-15
2022/06/30 01:29:44;;;;;;;12.38;8.60;;;;;;;;;;5046860;28;20300;-15
2022/06/30 01:32:11;;;;;;;10.77;9.30;;;;;;;;;;5052324;28;20245;-15
2022/06/30 01:34:38;;;;;;;19.20;9.75;;;;;;;;;;5048737;28;20236;-15
2022/06/30 01:37:06;;;;;;;11.27;9.95;;;;;;;;;;5045321;28;20234;-15
2022/06/30 01:39:35;;;;;;;10.52;9.63;;;;;;;;;;5044945;28;20257;-15
2022/06/30 01:42:02;;;;;;;11.23;9.73;;;;;;;;;;5038590;28;20234;-15
2022/06/30 01:44:30;;;;;;;10.77;9.70;;;;;;;;;;5039753;28;20238;-15
2022/06/30 01:46:57;;;;;;;10.88;9.20;;;;;;;;;;5040081;28;20230;-15
2022/06/30 01:49:24;;;;;;;13.38;10.07;;;;;;;;;;5041043;28;20240;-15
2022/06/30 01:51:52;;;;;;;10.15;9.15;;;;;;;;;;5043610;28;20237;-15
2022/06/30 01:54:19;;;;;;;11.52;10.40;;;;;;;;;;5042101;28;20230;-15
2022/06/30 01:56:49;;;;;;;12.50;10.15;;;;;;;;;;5042139;28;21161;-15
2022/06/30 01:59:16;;;;;;;13.38;10.23;;;;;;;;;;5043890;28;20229;-15
2022/06/30 02:01:43;;;;;;;11.23;9.98;;;;;;;;;;5049070;28;20222;-15
2022/06/30 02:06:57;;;;;;;10.40;9.35;;;;;;;;;;5045798;28;20238;-15
2022/06/30 02:09:25;;;;;;;11.57;10.48;;;;;;;;;;5049474;28;20238;-15
2022/06/30 02:12:45;;;;;;;11.70;10.50;;;;;;;;;;5043989;28;20234;-15
2022/06/30 02:14:41;;;;;;;11.98;10.65;;;;;;;;;;5049446;28;21575;-15
2022/06/30 02:17:08;;;;;;;12.38;10.20;;;;;;;;;;5046874;28;20903;-15
2022/06/30 02:19:36;;;;;;;11.48;10.25;;;;;;;;;;5046678;28;20729;-15
2022/06/30 02:22:03;;;;;;;10.90;9.82;;;;;;;;;;5060607;22;20752;-17
2022/06/30 02:24:31;;;;;;;11.02;9.80;;;;;;;;;;5046556;28;21609;-16
2022/06/30 02:26:59;;;;;;;12.07;10.80;;;;;;;;;;5048832;28;20236;-16
2022/06/30 02:29:27;;;;;;;12.48;10.20;;;;;;;;;;5049391;28;20229;-17
2022/06/30 02:31:54;;;;;;;12.15;10.85;;;;;;;;;;5049597;28;20313;-17
2022/06/30 02:34:22;;;;;;;13.32;10.63;;;;;;;;;;5048336;28;20254;-16
2022/06/30 02:36:50;;;;;;;11.75;9.82;;;;;;;;;;5048870;28;20329;-16
2022/06/30 02:39:17;;;;;;;12.05;10.15;;;;;;;;;;5048782;28;20329;-16
2022/06/30 02:41:45;;;;;;;10.90;9.82;;;;;;;;;;5049510;28;20721;-16
2022/06/30 02:44:14;;;;;;;11.90;10.70;;;;;;;;;;5048203;28;20705;-17
2022/06/30 02:46:42;;;;;;;11.45;10.43;;;;;;;;;;5051444;28;20239;-16
2022/06/30 02:49:09;;;;;;;11.93;10.70;;;;;;;;;;5052146;28;20222;-16
2022/06/30 02:51:37;;;;;;;11.48;9.82;;;;;;;;;;5053516;28;20241;-16
2022/06/30 02:54:04;;;;;;;10.50;9.50;;;;;;;;;;5050932;28;20231;-17
2022/06/30 02:56:31;;;;;;;10.70;9.70;;;;;;;;;;5052978;28;20238;-16
2022/06/30 02:58:59;;;;;;;11.45;10.35;;;;;;;;;;5053495;28;20244;-16
2022/06/30 03:01:27;;;;;;;12.20;10.35;;;;;;;;;;5055180;28;20234;-17
2022/06/30 03:03:55;;;;;;;11.57;10.48;;;;;;;;;;5053756;28;20248;-17
2022/06/30 03:06:22;;;;;;;12.27;11.07;;;;;;;;;;5053591;28;20712;-17
2022/06/30 03:08:50;;;;;;;11.82;10.13;;;;;;;;;;5052660;28;20710;-16
2022/06/30 03:11:17;;;;;;;11.52;10.35;;;;;;;;;;5053741;28;20230;-16
2022/06/30 03:14:04;;;;;;;13.65;10.90;;;;;;;;;;5051247;28;20234;-16
2022/06/30 03:16:33;;;;;;;11.60;10.40;;;;;;;;;;5053540;28;20318;-16
2022/06/30 03:19:01;;;;;;;12.10;11.00;;;;;;;;;;5047713;28;20682;-16
2022/06/30 03:21:28;;;;;;;10.95;9.48;;;;;;;;;;5043769;28;20289;-16
2022/06/30 03:23:56;;;;;;;10.50;9.50;;;;;;;;;;5047780;28;20241;-16
2022/06/30 03:26:23;;;;;;;10.55;9.57;;;;;;;;;;5039592;28;20252;-16
2022/06/30 03:28:50;;;;;;;11.88;10.40;;;;;;;;;;5053007;28;20230;-16
2022/06/30 03:31:18;;;;;;;12.82;10.60;;;;;;;;;;5054935;28;20240;-17
2022/06/30 03:33:47;;;;;;;12.00;10.70;;;;;;;;;;5053737;28;20288;-16
2022/06/30 03:36:14;;;;;;;12.13;10.80;;;;;;;;;;5050528;28;20241;-16
2022/06/30 03:38:41;;;;;;;13.27;11.88;;;;;;;;;;5053657;28;20604;-16
2022/06/30 03:41:09;;;;;;;12.18;10.98;;;;;;;;;;5050448;28;20233;-16
2022/06/30 03:43:36;;;;;;;11.65;10.55;;;;;;;;;;5050676;28;20249;-17
2022/06/30 03:46:04;;;;;;;11.77;10.57;;;;;;;;;;5052092;28;20241;-16
2022/06/30 03:48:31;;;;;;;12.35;11.15;;;;;;;;;;5050046;28;20694;-16
2022/06/30 03:51:00;;;;;;;12.50;11.05;;;;;;;;;;5050852;28;21250;-17
2022/06/30 03:53:28;;;;;;;12.32;11.10;;;;;;;;;;5048974;28;20273;-16
2022/06/30 03:55:55;;;;;;;12.45;11.25;;;;;;;;;;5049904;28;20226;-17
2022/06/30 03:58:22;;;;;;;11.35;10.30;;;;;;;;;;5050763;28;20232;-16
2022/06/30 04:00:50;;;;;;;11.63;10.45;;;;;;;;;;5047922;28;20230;-16
2022/06/30 04:03:17;;;;;;;12.30;11.02;;;;;;;;;;5050589;28;20340;-16
2022/06/30 04:05:45;;;;;;;13.60;10.27;;;;;;;;;;5051849;28;20717;-16
2022/06/30 04:08:13;;;;;;;11.60;10.40;;;;;;;;;;5053384;28;20716;-16
2022/06/30 04:10:41;;;;;;;12.75;11.52;;;;;;;;;;5052479;28;20244;-16
2022/06/30 04:13:08;;;;;;;13.98;12.18;;;;;;;;;;5048962;28;20230;-16
2022/06/30 04:15:35;;;;;;;12.77;11.52;;;;;;;;;;5054596;28;20252;-17
2022/06/30 04:18:03;;;;;;;13.00;11.60;;;;;;;;;;5046001;28;20230;-16
2022/06/30 04:20:30;;;;;;;14.70;11.75;;;;;;;;;;5047740;28;20222;-17
2022/06/30 04:22:58;;;;;;;13.30;11.32;;;;;;;;;;5048639;28;20330;-16
2022/06/30 04:25:30;;;;;;;12.18;11.02;;;;;;;;;;5052281;28;20226;-16
2022/06/30 04:27:59;;;;;;;12.38;11.18;;;;;;;;;;5041852;28;20227;-16
2022/06/30 04:33:11;;;;;;;13.13;11.82;;;;;;;;;;5051383;28;20595;-16
2022/06/30 04:35:38;;;;;;;13.68;11.63;;;;;;;;;;5051346;28;20272;-17
2022/06/30 04:38:05;;;;;;;13.77;12.50;;;;;;;;;;5053610;28;20234;-16
2022/06/30 04:43:19;;;;;;;15.57;12.27;;;;;;;;;;5044262;28;20234;-16
2022/06/30 04:45:47;;;;;;;13.63;12.23;;;;;;;;;;5047903;28;20236;-16
2022/06/30 04:48:14;;;;;;;13.77;12.32;;;;;;;;;;5048506;28;20254;-16
2022/06/30 04:50:41;;;;;;;15.05;12.45;;;;;;;;;;5051651;28;20241;-16
2022/06/30 04:53:09;;;;;;;17.08;12.93;;;;;;;;;;5046444;28;20269;-16
2022/06/30 04:55:39;;;;;;;14.23;12.90;;;;;;;;;;5047873;28;20229;-16
2022/06/30 04:58:06;;;;;;;14.73;13.32;;;;;;;;;;5051742;28;20715;-16
2022/06/30 05:00:33;;;;;;;14.57;13.20;;;;;;;;;;5052237;28;20232;-16
2022/06/30 05:03:01;;;;;;;16.70;14.07;;;;;;;;;;5050210;28;20552;-16
2022/06/30 05:05:28;;;;;;;13.85;12.50;;;;;;;;;;5048122;28;20238;-16
2022/06/30 05:07:55;;;;;;;15.65;13.98;;;;;;;;;;5048463;28;20241;-16
2022/06/30 05:10:23;;;;;;;15.23;13.00;;;;;;;;;;5049920;28;20244;-16
2022/06/30 05:12:52;;;;;;;15.52;13.93;;;;;;;;;;5055535;28;20325;-16
2022/06/30 05:15:19;;;;;;;15.60;14.00;;;;;;;;;;5048546;28;21528;-16
2022/06/30 05:17:47;;;;;;;15.50;13.85;;;;;;;;;;5047555;28;20269;-16
2022/06/30 05:20:14;;;;;;;15.30;13.88;;;;;;;;;;5045314;28;20235;-16
2022/06/30 05:22:41;;;;;;;16.75;13.73;;;;;;;;;;5047414;28;20996;-16
2022/06/30 05:27:55;;;;;;;15.27;13.77;;;;;;;;;;5044417;28;20665;-16
2022/06/30 05:30:22;;;;;;;18.08;14.95;;;;;;;;;;5048331;28;20760;-16
2022/06/30 05:32:50;;;;;;;15.90;14.43;;;;;;;;;;5047564;28;20232;-16
2022/06/30 05:35:17;;;;;;;16.63;15.13;;;;;;;;;;5049596;28;20316;-16
2022/06/30 05:37:51;;;;;;;17.40;15.48;;;;;;;;;;5051406;28;20234;-16
2022/06/30 05:40:18;;;;;;;16.48;14.75;;;;;;;;;;5048182;28;20694;-16
2022/06/30 05:42:46;;;;;;;22.10;14.77;;;;;;;;;;5047403;28;20863;-16
2022/06/30 05:45:14;;;;;;;17.75;15.82;;;;;;;;;;5050267;28;20242;-17
2022/06/30 05:47:46;;;;;;;17.05;15.45;;;;;;;;;;5048722;28;20282;-16
2022/06/30 05:50:14;;;;;;;20.17;15.40;;;;;;;;;;5048565;28;20231;-16
2022/06/30 05:52:41;;;;;;;28.98;15.43;;;;;;;;;;5051028;28;20241;-16
2022/06/30 05:55:08;;;;;;;18.20;15.35;;;;;;;;;;5051585;28;20237;-16
2022/06/30 05:57:47;;;;;;;17.05;14.95;;;;;;;;;;5050714;28;20710;-16
2022/06/30 06:00:16;;;;;;;17.90;16.15;;;;;;;;;;5048594;28;20242;-16
2022/06/30 06:02:44;;;;;;;15.80;12.90;;;;;;;;;;5049364;28;20226;-16
2022/06/30 06:05:15;;;;;;;13.52;12.15;;;;;;;;;;5051866;28;20301;-16
2022/06/30 06:07:43;;;;;;;16.08;12.73;;;;;;;;;;5051359;28;20658;-16
2022/06/30 06:10:10;;;;;;;15.63;14.13;;;;;;;;;;5046509;28;20230;-16
2022/06/30 06:12:40;;;;;;;17.90;14.45;;;;;;;;;;5048074;28;20309;-16
2022/06/30 06:15:08;;;;;;;14.40;12.88;;;;;;;;;;5045955;28;20233;-16
2022/06/30 06:17:41;;;;;;;16.58;14.68;;;;;;;;;;5051593;28;20595;-16
2022/06/30 06:20:09;;;;;;;17.17;15.32;;;;;;;;;;5046104;28;20230;-16
2022/06/30 06:22:37;;;;;;;18.60;16.77;;;;;;;;;;5049281;28;20729;-16
2022/06/30 06:25:05;;;;;;;20.38;17.10;;;;;;;;;;5051119;28;20238;-16
2022/06/30 06:27:32;;;;;;;19.38;17.45;;;;;;;;;;5048727;28;20233;-16
2022/06/30 06:29:59;;;;;;;23.83;17.92;;;;;;;;;;5051548;28;20230;-16
2022/06/30 06:32:27;;;;;;;21.95;19.45;;;;;;;;;;5051717;28;20240;-16
2022/06/30 06:34:55;;;;;;;22.52;20.30;;;;;;;;;;5049134;28;20885;-16
2022/06/30 06:37:23;;;;;;;23.90;19.95;;;;;;;;;;5046026;28;20233;-16
2022/06/30 06:39:50;;;;;;;22.55;19.95;;;;;;;;;;5050840;28;20234;-16
2022/06/30 06:42:18;;;;;;;24.23;19.35;;;;;;;;;;5050192;28;20717;-16
2022/06/30 06:44:47;;;;;;;22.35;19.88;;;;;;;;;;5043046;28;20298;-16
2022/06/30 06:47:15;;;;;;;21.95;19.65;;;;;;;;;;5055094;28;20234;-16
2022/06/30 06:49:42;;;;;;;23.92;19.70;;;;;;;;;;5059195;28;20249;-16
2022/06/30 06:52:11;;;;;;;20.00;17.90;;;;;;;;;;5058662;28;20230;-16
2022/06/30 06:54:38;;;;;;;23.73;19.58;;;;;;;;;;5053985;28;20226;-16
2022/06/30 06:57:06;;;;;;;22.17;17.70;;;;;;;;;;5055880;28;20233;-16
2022/06/30 06:59:35;;;;;;;25.50;20.50;;;;;;;;;;5061238;28;20226;-16
2022/06/30 07:02:02;;;;;;;24.23;20.92;;;;;;;;;;5060087;28;20230;-16
2022/06/30 07:04:29;;;;;;;24.27;19.45;;;;;;;;;;5061538;28;21320;-16
2022/06/30 07:06:57;;;;;;;20.52;18.42;;;;;;;;;;5059868;28;20711;-16
2022/06/30 07:09:26;;;;;;;22.02;19.50;;;;;;;;;;5058760;28;20317;-16
2022/06/30 07:11:53;;;;;;;23.90;19.65;;;;;;;;;;5061267;28;20309;-16
2022/06/30 07:14:20;;;;;;;22.60;20.35;;;;;;;;;;5052741;28;20848;-16
2022/06/30 07:16:49;;;;;;;23.35;19.60;;;;;;;;;;5051657;28;20240;-16
2022/06/30 07:19:16;;;;;;;20.85;18.70;;;;;;;;;;5054923;28;20708;-16
2022/06/30 07:21:44;;;;;;;27.50;19.30;;;;;;;;;;5054750;28;20740;-16
2022/06/30 07:24:11;;;;;;;21.17;18.48;;;;;;;;;;5058376;28;20728;-16
2022/06/30 07:26:40;;;;;;;21.58;18.98;;;;;;;;;;5054390;28;20338;-16
2022/06/30 07:29:07;;;;;;;23.70;18.38;;;;;;;;;;5052716;28;20230;-16
2022/06/30 07:31:34;;;;;;;19.75;17.00;;;;;;;;;;5052444;28;20234;-16
2022/06/30 07:34:02;;;;;;;17.52;15.52;;;;;;;;;;5052214;28;20241;-16
2022/06/30 07:36:29;;;;;;;19.52;17.48;;;;;;;;;;5043965;28;20332;-16
2022/06/30 07:38:57;;;;;;;21.33;18.13;;;;;;;;;;5048596;28;20241;-16
2022/06/30 07:41:24;;;;;;;18.88;16.13;;;;;;;;;;5043436;28;20233;-16
2022/06/30 07:43:53;;;;;;;17.65;14.82;;;;;;;;;;5051998;28;20245;-15
2022/06/30 07:46:20;;;;;;;13.55;12.15;;;;;;;;;;5051960;28;20269;-16
2022/06/30 07:48:49;;;;;;;20.40;17.67;;;;;;;;;;5044696;28;20629;-16
2022/06/30 07:51:18;;;;;;;22.20;17.05;;;;;;;;;;5054850;28;21128;-16
2022/06/30 07:53:46;;;;;;;19.38;16.90;;;;;;;;;;5051541;28;20238;-16
2022/06/30 07:56:14;;;;;;;18.02;16.13;;;;;;;;;;5060539;28;20313;-15
2022/06/30 07:58:41;;;;;;;19.75;15.23;;;;;;;;;;5047717;28;20273;-16
2022/06/30 08:01:10;;;;;;;15.38;13.80;;;;;;;;;;5052351;28;20226;-16
2022/06/30 08:03:41;;;;;;;22.30;16.48;;;;;;;;;;5060067;28;20329;-16
2022/06/30 08:06:09;;;;;;;16.40;14.55;;;;;;;;;;5051217;28;20250;-16
2022/06/30 08:08:36;;;;;;;15.13;13.48;;;;;;;;;;5051075;28;20951;-16
2022/06/30 08:11:03;;;;;;;19.88;12.95;;;;;;;;;;5044407;28;20652;-16
2022/06/30 08:13:33;;;;;;;13.48;11.48;;;;;;;;;;5043604;28;20731;-18
2022/06/30 08:16:00;;;;;;;14.80;10.88;;;;;;;;;;5050871;28;20954;-17
2022/06/30 08:18:29;;;;;;;16.73;12.25;;;;;;;;;;5041432;28;20229;-15
2022/06/30 08:20:56;;;;;;;17.63;11.57;;;;;;;;;;5047007;28;20248;-17
2022/06/30 08:23:23;;;;;;;18.90;11.88;;;;;;;;;;5047270;28;20234;-17
2022/06/30 08:25:51;;;;;;;14.07;12.30;;;;;;;;;;5047869;28;20237;-17
2022/06/30 08:28:18;;;;;;;14.40;11.15;;;;;;;;;;5052978;28;20236;-15
2022/06/30 08:30:46;;;;;;;15.18;11.05;;;;;;;;;;5047034;28;20240;-17
2022/06/30 08:33:13;;;;;;;13.00;10.30;;;;;;;;;;5046617;28;21218;-17
2022/06/30 08:35:43;;;;;;;12.30;9.73;;;;;;;;;;5047097;28;20230;-17
2022/06/30 08:38:27;;;;;;;14.40;11.73;;;;;;;;;;5052924;28;20288;-16
2022/06/30 08:43:40;;;;;;;11.98;10.77;;;;;;;;;;5048861;28;20252;-17
2022/06/30 08:46:08;;;;;;;15.77;9.95;;;;;;;;;;5050126;28;21020;-17
2022/06/30 08:48:35;;;;;;;15.60;11.68;;;;;;;;;;5047599;28;20230;-17
2022/06/30 08:51:06;;;;;;;13.13;9.82;;;;;;;;;;5046409;28;20252;-17
2022/06/30 08:53:38;;;;;;;13.60;9.50;;;;;;;;;;5040661;28;20485;-16
2022/06/30 08:56:05;;;;;;;13.88;9.05;;;;;;;;;;5045222;28;20329;-17
2022/06/30 08:58:33;;;;;;;9.77;8.00;;;;;;;;;;5044122;28;20293;-17
2022/06/30 09:01:00;;;;;;;9.40;7.03;;;;;;;;;;5046799;28;20234;-16
2022/06/30 09:03:28;;;;;;;8.07;6.47;;;;;;;;;;5048938;28;20240;-16
2022/06/30 09:05:56;;;;;;;8.30;6.28;;;;;;;;;;5043078;28;20238;-16
2022/06/30 09:08:26;;;;;;;8.48;6.55;;;;;;;;;;5047571;28;20238;-16
2022/06/30 09:10:54;;;;;;;9.45;6.45;;;;;;;;;;5047690;28;20281;-17
2022/06/30 09:13:21;;;;;;;7.72;5.82;;;;;;;;;;5045854;28;20226;-16
2022/06/30 09:15:49;;;;;;;9.63;6.22;;;;;;;;;;5047878;28;20269;-16
2022/06/30 09:18:23;;;;;;;8.40;6.32;;;;;;;;;;5046553;28;20295;-16
2022/06/30 09:20:51;;;;;;;8.57;6.57;;;;;;;;;;5040935;28;21575;-16
2022/06/30 09:23:19;;;;;;;8.45;5.78;;;;;;;;;;5046371;28;20234;-16
2022/06/30 09:25:49;;;;;;;8.52;6.72;;;;;;;;;;5046290;28;20238;-16
2022/06/30 09:28:16;;;;;;;6.55;5.35;;;;;;;;;;5046648;28;20573;-16
2022/06/30 09:30:44;;;;;;;9.18;5.50;;;;;;;;;;5051943;28;20234;-16
2022/06/30 09:33:11;;;;;;;6.05;5.45;;;;;;;;;;5046165;28;20268;-16
2022/06/30 09:35:40;;;;;;;9.15;5.90;;;;;;;;;;5049270;28;20693;-16
2022/06/30 09:38:08;;;;;;;6.75;5.40;;;;;;;;;;5046456;28;20230;-16
2022/06/30 09:40:36;;;;;;;6.60;5.50;;;;;;;;;;5048379;28;20229;-16
2022/06/30 09:43:04;;;;;;;8.23;6.07;;;;;;;;;;5045706;28;20249;-16
2022/06/30 09:45:36;;;;;;;6.88;5.97;;;;;;;;;;5057956;28;20225;-16
2022/06/30 09:48:03;;;;;;;9.07;6.25;;;;;;;;;;5046271;28;20249;-16
2022/06/30 09:50:31;;;;;;;6.85;5.70;;;;;;;;;;5046933;28;20606;-16
2022/06/30 09:53:09;;;;;;;7.15;5.68;;;;;;;;;;5047014;28;20240;-16
2022/06/30 09:55:37;;;;;;;9.13;7.13;;;;;;;;;;5054615;28;20229;-16
2022/06/30 09:58:06;;;;;;;11.52;7.07;;;;;;;;;;5047441;28;20239;-16
2022/06/30 10:00:42;;;;;;;9.75;6.80;;;;;;;;;;5055134;28;20287;-16
2022/06/30 10:03:09;;;;;;;10.55;6.97;;;;;;;;;;5050319;28;20752;-16
2022/06/30 10:05:38;;;;;;;13.93;7.63;;;;;;;;;;5046140;28;20279;-16
2022/06/30 10:08:06;;;;;;;11.07;6.43;;;;;;;;;;5050665;28;20264;-16
2022/06/30 10:10:33;;;;;;;10.18;6.50;;;;;;;;;;5053311;28;20241;-16
2022/06/30 10:13:00;;;;;;;9.00;7.22;;;;;;;;;;5050271;28;20241;-16
2022/06/30 10:15:29;;;;;;;8.93;6.40;;;;;;;;;;5051146;28;20230;-16
2022/06/30 10:17:57;;;;;;;9.20;6.30;;;;;;;;;;5050077;28;20237;-16
2022/06/30 10:20:26;;;;;;;10.18;6.15;;;;;;;;;;5049866;28;20233;-16
2022/06/30 10:22:54;;;;;;;8.27;5.55;;;;;;;;;;5049275;28;20238;-17
2022/06/30 10:25:21;;;;;;;7.85;5.25;;;;;;;;;;5050429;28;20234;-16
2022/06/30 10:27:49;;;;;;;8.48;5.63;;;;;;;;;;5049327;28;20241;-16
2022/06/30 10:30:16;;;;;;;7.90;5.07;;;;;;;;;;5052949;28;20244;-16
2022/06/30 10:32:47;;;;;;;7.50;4.80;;;;;;;;;;5054439;28;20240;-16
2022/06/30 10:35:16;;;;;;;7.38;5.30;;;;;;;;;;5048945;28;20685;-15
2022/06/30 10:37:46;;;;;;;9.80;4.93;;;;;;;;;;5051518;28;20241;-17
2022/06/30 10:40:16;;;;;;;7.10;4.70;;;;;;;;;;5047405;28;20442;-16
2022/06/30 10:42:44;;;;;;;5.30;4.55;;;;;;;;;;5045401;28;20240;-16
2022/06/30 10:45:26;;;;;;;5.57;4.10;;;;;;;;;;5047849;28;20814;-16
2022/06/30 10:47:58;;;;;;;7.40;3.67;;;;;;;;;;5049627;28;20337;-16
2022/06/30 10:50:32;;;;;;;5.88;3.50;;;;;;;;;;5040590;28;20430;-16
2022/06/30 10:52:59;;;;;;;6.30;3.55;;;;;;;;;;5054289;28;20278;-16
2022/06/30 10:55:27;;;;;;;6.22;3.63;;;;;;;;;;5051266;28;20244;-16
2022/06/30 10:58:05;;;;;;;6.30;3.60;;;;;;;;;;5052154;28;20242;-17
2022/06/30 11:00:50;;;;;;;5.30;3.10;;;;;;;;;;5041349;28;20941;-17
2022/06/30 11:03:32;;;;;;;5.43;3.05;;;;;;;;;;5049647;28;20234;-16
2022/06/30 11:06:02;;;;;;;3.75;2.85;;;;;;;;;;5046913;28;20751;-16
2022/06/30 11:08:49;;;;;;;5.80;2.80;;;;;;;;;;5051786;28;20230;-16
2022/06/30 11:11:31;;;;;;;8.65;2.88;;;;;;;;;;5047343;28;20234;-16
2022/06/30 11:14:14;;;;;;;7.07;3.42;;;;;;;;;;5049055;28;20226;-16
2022/06/30 11:16:42;;;;;;;6.15;3.38;;;;;;;;;;5047998;28;20445;-16
2022/06/30 11:19:14;;;;;;;9.60;4.68;;;;;;;;;;5047443;28;20285;-16
2022/06/30 11:21:43;;;;;;;5.65;3.40;;;;;;;;;;5050139;28;20242;-16
2022/06/30 11:24:11;;;;;;;3.83;3.30;;;;;;;;;;5046715;28;20274;-16
2022/06/30 11:29:26;;;;;;;8.82;3.80;;;;;;;;;;5049147;28;21032;-16
2022/06/30 11:31:58;;;;;;;6.65;3.92;;;;;;;;;;5054342;28;20261;-16
2022/06/30 11:34:25;;;;;;;4.97;3.30;;;;;;;;;;5049085;28;20240;-16
2022/06/30 11:36:54;;;;;;;3.88;3.03;;;;;;;;;;5049120;28;20960;-16
2022/06/30 11:39:21;;;;;;;6.53;3.00;;;;;;;;;;5047925;28;20258;-16
2022/06/30 11:41:55;;;;;;;6.97;3.22;;;;;;;;;;5051035;28;20264;-16
2022/06/30 11:44:23;;;;;;;6.70;3.38;;;;;;;;;;5048619;28;20241;-16
2022/06/30 11:46:52;;;;;;;5.22;3.40;;;;;;;;;;5049980;28;20230;-15
2022/06/30 11:49:20;;;;;;;6.55;3.72;;;;;;;;;;5048990;28;20242;-16
2022/06/30 11:51:48;;;;;;;8.02;3.72;;;;;;;;;;5048744;28;20258;-15
2022/06/30 11:54:17;;;;;;;4.20;3.65;;;;;;;;;;5049051;28;20329;-15
2022/06/30 11:56:47;;;;;;;4.70;3.30;;;;;;;;;;5044315;28;20234;-16
2022/06/30 11:59:15;;;;;;;4.32;3.88;;;;;;;;;;5048260;28;20230;-15
2022/06/30 12:01:43;;;;;;;5.22;4.07;;;;;;;;;;5049642;28;20239;-15
2022/06/30 12:04:14;;;;;;;3.97;3.58;;;;;;;;;;5048909;28;20246;-15
2022/06/30 12:06:41;;;;;;;3.85;3.45;;;;;;;;;;5048155;28;20234;-15
2022/06/30 12:09:09;;;;;;;5.03;3.63;;;;;;;;;;5050757;28;21023;-15
2022/06/30 12:11:37;;;;;;;4.63;4.00;;;;;;;;;;5050434;28;20256;-15
2022/06/30 12:14:05;;;;;;;5.18;3.85;;;;;;;;;;5056691;28;20237;-15
2022/06/30 12:16:33;;;;;;;4.45;3.72;;;;;;;;;;5054569;28;21149;-15
2022/06/30 12:19:00;;;;;;;5.38;3.63;;;;;;;;;;5049516;28;20230;-16
2022/06/30 12:21:28;;;;;;;5.47;4.10;;;;;;;;;;5040849;28;20313;-16
2022/06/30 12:23:56;;;;;;;5.55;3.58;;;;;;;;;;5047357;28;20230;-16
2022/06/30 12:26:23;;;;;;;4.13;3.72;;;;;;;;;;5050556;28;20238;-15
2022/06/30 12:28:54;;;;;;;4.60;3.95;;;;;;;;;;5048585;28;20234;-15
2022/06/30 12:31:25;;;;;;;4.65;3.63;;;;;;;;;;5055741;28;20234;-15
2022/06/30 12:33:53;;;;;;;6.60;3.75;;;;;;;;;;5043785;28;21060;-15
2022/06/30 12:36:20;;;;;;;7.38;4.10;;;;;;;;;;5055232;28;20236;-15
2022/06/30 12:38:47;;;;;;;6.65;3.83;;;;;;;;;;5049311;28;20286;-15
2022/06/30 12:41:15;;;;;;;4.40;3.47;;;;;;;;;;5047121;28;20242;-15
2022/06/30 12:43:43;;;;;;;5.80;3.97;;;;;;;;;;5046317;28;20238;-16
2022/06/30 12:46:11;;;;;;;5.75;3.47;;;;;;;;;;5049954;28;21055;-15
2022/06/30 12:48:40;;;;;;;7.38;3.80;;;;;;;;;;5050634;28;20238;-15
2022/06/30 12:51:08;;;;;;;4.60;3.78;;;;;;;;;;5046407;28;20238;-15
2022/06/30 12:53:35;;;;;;;4.90;3.58;;;;;;;;;;5049752;28;20864;-16
2022/06/30 12:56:04;;;;;;;4.00;3.60;;;;;;;;;;5048281;28;20226;-16
2022/06/30 12:58:51;;;;;;;6.13;3.50;;;;;;;;;;5048423;28;20234;-15
2022/06/30 13:01:20;;;;;;;5.50;4.00;;;;;;;;;;5047697;28;20237;-16
2022/06/30 13:03:52;;;;;;;7.80;3.47;;;;;;;;;;5048463;28;20230;-16
2022/06/30 13:06:20;;;;;;;4.55;3.22;;;;;;;;;;5049861;28;20234;-15
2022/06/30 13:08:48;;;;;;;4.88;3.53;;;;;;;;;;5048037;28;20336;-16
2022/06/30 13:11:16;;;;;;;4.13;2.92;;;;;;;;;;5047396;28;20957;-15
2022/06/30 13:13:44;;;;;;;5.13;3.45;;;;;;;;;;5048076;28;20261;-15
2022/06/30 13:16:11;;;;;;;6.40;3.42;;;;;;;;;;5046491;28;20274;-16
2022/06/30 13:18:40;;;;;;;6.10;3.78;;;;;;;;;;5049393;28;20226;-16
2022/06/30 13:21:08;;;;;;;4.55;3.80;;;;;;;;;;5047864;28;20253;-16
2022/06/30 13:23:35;;;;;;;5.95;3.65;;;;;;;;;;5046689;28;20229;-17
2022/06/30 13:26:03;;;;;;;11.18;3.67;;;;;;;;;;5048218;28;20229;-16
2022/06/30 13:28:30;;;;;;;6.43;3.72;;;;;;;;;;5048221;28;20284;-16
2022/06/30 13:30:58;;;;;;;8.32;3.65;;;;;;;;;;5057180;28;20244;-16
2022/06/30 13:33:25;;;;;;;6.15;3.65;;;;;;;;;;5047580;28;21112;-15
2022/06/30 13:35:54;;;;;;;7.03;3.55;;;;;;;;;;5048307;28;20234;-16
2022/06/30 13:38:21;;;;;;;7.50;3.67;;;;;;;;;;5048301;28;20746;-16
2022/06/30 13:40:49;;;;;;;4.20;3.60;;;;;;;;;;5048653;28;20238;-16
2022/06/30 13:43:16;;;;;;;4.25;3.55;;;;;;;;;;5050922;28;20257;-15
2022/06/30 13:45:43;;;;;;;6.80;4.07;;;;;;;;;;5052792;28;20247;-16
2022/06/30 13:48:11;;;;;;;7.25;3.70;;;;;;;;;;5050112;28;20234;-16
2022/06/30 13:50:38;;;;;;;8.10;3.80;;;;;;;;;;5051305;28;20267;-16
2022/06/30 13:53:07;;;;;;;6.93;3.70;;;;;;;;;;5047957;28;20234;-16
2022/06/30 13:55:35;;;;;;;6.22;3.58;;;;;;;;;;5049255;28;20233;-15
2022/06/30 13:58:02;;;;;;;6.30;3.60;;;;;;;;;;5046188;28;20242;-16
2022/06/30 14:00:29;;;;;;;11.25;3.65;;;;;;;;;;5043811;28;20265;-15
2022/06/30 14:02:57;;;;;;;5.60;3.47;;;;;;;;;;5046147;28;20250;-16
2022/06/30 14:05:24;;;;;;;6.70;3.45;;;;;;;;;;5048551;28;20230;-15
2022/06/30 14:07:52;;;;;;;3.97;3.38;;;;;;;;;;5045778;28;20230;-16
2022/06/30 14:10:21;;;;;;;3.75;3.35;;;;;;;;;;5047371;28;20248;-16
2022/06/30 14:12:48;;;;;;;11.35;3.60;;;;;;;;;;5041987;28;20898;-16
2022/06/30 14:15:16;;;;;;;9.30;3.97;;;;;;;;;;5047635;28;20238;-15
2022/06/30 14:17:43;;;;;;;5.32;3.50;;;;;;;;;;5049281;28;20237;-15
2022/06/30 14:20:11;;;;;;;12.43;3.35;;;;;;;;;;5041788;28;20261;-16
2022/06/30 14:22:40;;;;;;;7.13;3.78;;;;;;;;;;5037818;28;20748;-15
2022/06/30 14:25:08;;;;;;;5.28;3.55;;;;;;;;;;5051066;28;20210;-15
2022/06/30 14:27:37;;;;;;;7.95;3.90;;;;;;;;;;5038484;28;20241;-15
2022/06/30 14:30:05;;;;;;;8.82;3.47;;;;;;;;;;5039634;28;20238;-15
2022/06/30 14:32:34;;;;;;;6.65;3.60;;;;;;;;;;5058718;28;20233;-15
2022/06/30 14:35:02;;;;;;;7.15;3.67;;;;;;;;;;5050734;28;20230;-16
2022/06/30 14:37:30;;;;;;;8.20;3.67;;;;;;;;;;5051448;28;20222;-15
2022/06/30 14:39:57;;;;;;;8.30;3.88;;;;;;;;;;5038756;28;20234;-15
2022/06/30 14:45:11;;;;;;;9.65;3.88;;;;;;;;;;5040527;28;20935;-15
2022/06/30 14:47:39;;;;;;;5.43;3.33;;;;;;;;;;5054577;28;20731;-15
2022/06/30 14:50:08;;;;;;;6.97;3.72;;;;;;;;;;5051554;28;20285;-16
2022/06/30 14:52:36;;;;;;;6.75;3.50;;;;;;;;;;5046578;28;20237;-15
2022/06/30 14:55:04;;;;;;;5.68;3.35;;;;;;;;;;5054997;28;20595;-15
2022/06/30 14:57:31;;;;;;;4.38;3.17;;;;;;;;;;5054396;28;20226;-16
2022/06/30 14:59:59;;;;;;;6.32;3.90;;;;;;;;;;5054578;28;20236;-15